sensor_id;sensor_type;location;lat;lon;timestamp;temperature;humidity
35531;DHT22;21637;53.352;-6.356;2022-07-23T00:01:29;17.90;99.90
35531;DHT22;21637;53.352;-6.356;2022-07-23T00:03:55;17.90;99.90
35531;DHT22;21637;53.352;-6.356;2022-07-23T00:06:21;17.90;99.90
35531;DHT22;21637;53.352;-6.356;2022-07-23T00:08:47;17.90;99.90
35531;DHT22;21637;53.352;-6.356;2022-07-23T00:11:12;17.90;99.90
35531;DHT22;21637;53.352;-6.356;2022-07-23T00:13:38;18.00;99.90
35531;DHT22;21637;53.352;-6.356;2022-07-23T00:16:04;18.00;99.90
35531;DHT22;21637;53.352;-6.356;2022-07-23T00:18:29;18.00;99.90
35531;DHT22;21637;53.352;-6.356;2022-07-23T00:20:55;18.00;99.90
35531;DHT22;21637;53.352;-6.356;2022-07-23T00:23:21;18.00;99.90
35531;DHT22;21637;53.352;-6.356;2022-07-23T00:25:46;17.90;99.90
35531;DHT22;21637;53.352;-6.356;2022-07-23T00:28:12;17.90;99.90
35531;DHT22;21637;53.352;-6.356;2022-07-23T00:30:38;18.00;99.90
35531;DHT22;21637;53.352;-6.356;2022-07-23T00:33:05;17.90;99.90
35531;DHT22;21637;53.352;-6.356;2022-07-23T00:35:35;18.00;99.90
35531;DHT22;21637;53.352;-6.356;2022-07-23T00:38:03;18.00;99.90
35531;DHT22;21637;53.352;-6.356;2022-07-23T00:40:30;18.00;99.90
35531;DHT22;21637;53.352;-6.356;2022-07-23T00:42:56;18.00;99.90
35531;DHT22;21637;53.352;-6.356;2022-07-23T00:45:22;18.00;99.90
35531;DHT22;21637;53.352;-6.356;2022-07-23T00:47:47;18.00;99.90
35531;DHT22;21637;53.352;-6.356;2022-07-23T00:50:13;18.00;99.90
35531;DHT22;21637;53.352;-6.356;2022-07-23T00:52:40;18.00;99.90
35531;DHT22;21637;53.352;-6.356;2022-07-23T00:55:06;18.00;99.90
35531;DHT22;21637;53.352;-6.356;2022-07-23T00:57:31;18.00;99.90
35531;DHT22;21637;53.352;-6.356;2022-07-23T00:59:57;18.00;99.90
35531;DHT22;21637;53.352;-6.356;2022-07-23T01:02:24;18.00;99.90
35531;DHT22;21637;53.352;-6.356;2022-07-23T01:04:49;17.90;99.90
35531;DHT22;21637;53.352;-6.356;2022-07-23T01:07:15;17.90;99.90
35531;DHT22;21637;53.352;-6.356;2022-07-23T01:09:41;17.90;99.90
35531;DHT22;21637;53.352;-6.356;2022-07-23T01:12:07;17.90;99.90
35531;DHT22;21637;53.352;-6.356;2022-07-23T01:14:33;17.80;99.90
35531;DHT22;21637;53.352;-6.356;2022-07-23T01:16:58;17.90;99.90
35531;DHT22;21637;53.352;-6.356;2022-07-23T01:19:24;17.80;99.90
35531;DHT22;21637;53.352;-6.356;2022-07-23T01:21:50;17.80;99.90
35531;DHT22;21637;53.352;-6.356;2022-07-23T01:24:17;17.80;99.90
35531;DHT22;21637;53.352;-6.356;2022-07-23T01:26:46;17.80;99.90
35531;DHT22;21637;53.352;-6.356;2022-07-23T01:29:11;17.80;99.90
35531;DHT22;21637;53.352;-6.356;2022-07-23T01:31:37;17.80;99.90
35531;DHT22;21637;53.352;-6.356;2022-07-23T01:34:03;17.80;99.90
35531;DHT22;21637;53.352;-6.356;2022-07-23T01:36:29;17.80;99.90
35531;DHT22;21637;53.352;-6.356;2022-07-23T01:38:55;17.80;99.90
35531;DHT22;21637;53.352;-6.356;2022-07-23T01:41:21;17.90;99.90
35531;DHT22;21637;53.352;-6.356;2022-07-23T01:43:46;17.90;99.90
35531;DHT22;21637;53.352;-6.356;2022-07-23T01:46:12;17.90;99.90
35531;DHT22;21637;53.352;-6.356;2022-07-23T01:48:37;18.00;99.90
35531;DHT22;21637;53.352;-6.356;2022-07-23T01:51:03;18.00;99.90
35531;DHT22;21637;53.352;-6.356;2022-07-23T01:53:29;18.00;99.90
35531;DHT22;21637;53.352;-6.356;2022-07-23T01:55:56;18.00;99.90
35531;DHT22;21637;53.352;-6.356;2022-07-23T01:58:22;18.00;99.90
35531;DHT22;21637;53.352;-6.356;2022-07-23T02:00:48;18.00;99.90
35531;DHT22;21637;53.352;-6.356;2022-07-23T02:03:13;18.10;99.90
35531;DHT22;21637;53.352;-6.356;2022-07-23T02:05:39;18.10;99.90
35531;DHT22;21637;53.352;-6.356;2022-07-23T02:08:05;18.10;99.90
35531;DHT22;21637;53.352;-6.356;2022-07-23T02:10:30;18.10;99.90
35531;DHT22;21637;53.352;-6.356;2022-07-23T02:12:56;18.10;99.90
35531;DHT22;21637;53.352;-6.356;2022-07-23T02:15:21;18.10;99.90
35531;DHT22;21637;53.352;-6.356;2022-07-23T02:17:47;18.10;99.90
35531;DHT22;21637;53.352;-6.356;2022-07-23T02:20:13;18.10;99.90
35531;DHT22;21637;53.352;-6.356;2022-07-23T02:22:39;18.00;99.90
35531;DHT22;21637;53.352;-6.356;2022-07-23T02:25:05;17.90;99.90
35531;DHT22;21637;53.352;-6.356;2022-07-23T02:27:31;17.70;99.90
35531;DHT22;21637;53.352;-6.356;2022-07-23T02:29:56;17.70;99.90
35531;DHT22;21637;53.352;-6.356;2022-07-23T02:32:23;17.60;99.90
35531;DHT22;21637;53.352;-6.356;2022-07-23T02:34:49;17.50;99.90
35531;DHT22;21637;53.352;-6.356;2022-07-23T02:37:14;17.40;99.90
35531;DHT22;21637;53.352;-6.356;2022-07-23T02:39:40;17.40;99.90
35531;DHT22;21637;53.352;-6.356;2022-07-23T02:42:06;17.40;99.90
35531;DHT22;21637;53.352;-6.356;2022-07-23T02:44:31;17.40;99.90
35531;DHT22;21637;53.352;-6.356;2022-07-23T02:46:57;17.40;99.90
35531;DHT22;21637;53.352;-6.356;2022-07-23T02:49:23;17.40;99.90
35531;DHT22;21637;53.352;-6.356;2022-07-23T02:51:48;17.40;99.90
35531;DHT22;21637;53.352;-6.356;2022-07-23T02:54:14;17.40;99.90
35531;DHT22;21637;53.352;-6.356;2022-07-23T02:56:39;17.40;99.90
35531;DHT22;21637;53.352;-6.356;2022-07-23T02:59:05;17.40;99.90
35531;DHT22;21637;53.352;-6.356;2022-07-23T03:01:30;17.50;99.90
35531;DHT22;21637;53.352;-6.356;2022-07-23T03:03:56;17.50;99.90
35531;DHT22;21637;53.352;-6.356;2022-07-23T03:06:22;17.50;99.90
35531;DHT22;21637;53.352;-6.356;2022-07-23T03:08:48;17.50;99.90
35531;DHT22;21637;53.352;-6.356;2022-07-23T03:11:14;17.40;99.90
35531;DHT22;21637;53.352;-6.356;2022-07-23T03:13:40;17.40;99.90
35531;DHT22;21637;53.352;-6.356;2022-07-23T03:16:06;17.50;99.90
35531;DHT22;21637;53.352;-6.356;2022-07-23T03:18:31;17.40;99.90
35531;DHT22;21637;53.352;-6.356;2022-07-23T03:20:57;17.40;99.90
35531;DHT22;21637;53.352;-6.356;2022-07-23T03:23:23;17.40;99.90
35531;DHT22;21637;53.352;-6.356;2022-07-23T03:25:48;17.40;99.90
35531;DHT22;21637;53.352;-6.356;2022-07-23T03:28:14;17.40;99.90
35531;DHT22;21637;53.352;-6.356;2022-07-23T03:30:41;17.40;99.90
35531;DHT22;21637;53.352;-6.356;2022-07-23T03:33:07;17.40;99.90
35531;DHT22;21637;53.352;-6.356;2022-07-23T03:35:32;17.40;99.90
35531;DHT22;21637;53.352;-6.356;2022-07-23T03:37:58;17.40;99.90
35531;DHT22;21637;53.352;-6.356;2022-07-23T03:40:24;17.40;99.90
35531;DHT22;21637;53.352;-6.356;2022-07-23T03:42:49;17.40;99.90
35531;DHT22;21637;53.352;-6.356;2022-07-23T03:45:15;17.30;99.90
35531;DHT22;21637;53.352;-6.356;2022-07-23T03:47:41;17.30;99.90
35531;DHT22;21637;53.352;-6.356;2022-07-23T03:50:06;17.30;99.90
35531;DHT22;21637;53.352;-6.356;2022-07-23T03:52:32;17.40;99.90
35531;DHT22;21637;53.352;-6.356;2022-07-23T03:54:58;17.40;99.90
35531;DHT22;21637;53.352;-6.356;2022-07-23T03:57:23;17.40;99.90
35531;DHT22;21637;53.352;-6.356;2022-07-23T03:59:49;17.40;99.90
35531;DHT22;21637;53.352;-6.356;2022-07-23T04:02:14;17.40;99.90
35531;DHT22;21637;53.352;-6.356;2022-07-23T04:04:40;17.40;99.90
35531;DHT22;21637;53.352;-6.356;2022-07-23T04:07:06;17.40;99.90
35531;DHT22;21637;53.352;-6.356;2022-07-23T04:09:33;17.40;99.90
35531;DHT22;21637;53.352;-6.356;2022-07-23T04:11:59;17.40;99.90
35531;DHT22;21637;53.352;-6.356;2022-07-23T04:14:24;17.40;99.90
35531;DHT22;21637;53.352;-6.356;2022-07-23T04:16:50;17.40;99.90
35531;DHT22;21637;53.352;-6.356;2022-07-23T04:19:15;17.40;99.90
35531;DHT22;21637;53.352;-6.356;2022-07-23T04:21:41;17.40;99.90
35531;DHT22;21637;53.352;-6.356;2022-07-23T04:24:07;17.40;99.90
35531;DHT22;21637;53.352;-6.356;2022-07-23T04:26:32;17.40;99.90
35531;DHT22;21637;53.352;-6.356;2022-07-23T04:28:58;17.40;99.90
35531;DHT22;21637;53.352;-6.356;2022-07-23T04:31:23;17.40;99.90
35531;DHT22;21637;53.352;-6.356;2022-07-23T04:33:49;17.30;99.90
35531;DHT22;21637;53.352;-6.356;2022-07-23T04:36:15;17.30;99.90
35531;DHT22;21637;53.352;-6.356;2022-07-23T04:38:40;17.30;99.90
35531;DHT22;21637;53.352;-6.356;2022-07-23T04:41:06;17.30;99.90
35531;DHT22;21637;53.352;-6.356;2022-07-23T04:43:31;17.30;99.90
35531;DHT22;21637;53.352;-6.356;2022-07-23T04:45:57;17.30;99.90
35531;DHT22;21637;53.352;-6.356;2022-07-23T04:48:22;17.30;99.90
35531;DHT22;21637;53.352;-6.356;2022-07-23T04:50:48;17.40;99.90
35531;DHT22;21637;53.352;-6.356;2022-07-23T04:53:13;17.40;99.90
35531;DHT22;21637;53.352;-6.356;2022-07-23T04:55:39;17.40;99.90
35531;DHT22;21637;53.352;-6.356;2022-07-23T04:58:05;17.50;99.90
35531;DHT22;21637;53.352;-6.356;2022-07-23T05:00:30;17.60;99.90
35531;DHT22;21637;53.352;-6.356;2022-07-23T05:02:56;17.60;99.90
35531;DHT22;21637;53.352;-6.356;2022-07-23T05:05:21;17.60;99.90
35531;DHT22;21637;53.352;-6.356;2022-07-23T05:07:47;17.70;99.90
35531;DHT22;21637;53.352;-6.356;2022-07-23T05:10:12;17.70;99.90
35531;DHT22;21637;53.352;-6.356;2022-07-23T05:12:38;17.60;99.90
35531;DHT22;21637;53.352;-6.356;2022-07-23T05:15:04;17.70;99.90
35531;DHT22;21637;53.352;-6.356;2022-07-23T05:17:29;17.70;99.90
35531;DHT22;21637;53.352;-6.356;2022-07-23T05:19:55;17.60;99.90
35531;DHT22;21637;53.352;-6.356;2022-07-23T05:22:20;17.70;99.90
35531;DHT22;21637;53.352;-6.356;2022-07-23T05:24:46;17.70;99.90
35531;DHT22;21637;53.352;-6.356;2022-07-23T05:27:11;17.70;99.90
35531;DHT22;21637;53.352;-6.356;2022-07-23T05:29:37;17.70;99.90
35531;DHT22;21637;53.352;-6.356;2022-07-23T05:32:03;17.70;99.90
35531;DHT22;21637;53.352;-6.356;2022-07-23T05:34:28;17.70;99.90
35531;DHT22;21637;53.352;-6.356;2022-07-23T05:36:54;17.70;99.90
35531;DHT22;21637;53.352;-6.356;2022-07-23T05:39:19;17.60;99.90
35531;DHT22;21637;53.352;-6.356;2022-07-23T05:41:45;17.60;99.90
35531;DHT22;21637;53.352;-6.356;2022-07-23T05:44:11;17.60;99.90
35531;DHT22;21637;53.352;-6.356;2022-07-23T05:46:36;17.60;99.90
35531;DHT22;21637;53.352;-6.356;2022-07-23T05:49:02;17.50;99.90
35531;DHT22;21637;53.352;-6.356;2022-07-23T05:51:27;17.50;99.90
35531;DHT22;21637;53.352;-6.356;2022-07-23T05:53:53;17.50;99.90
35531;DHT22;21637;53.352;-6.356;2022-07-23T05:56:18;17.40;99.90
35531;DHT22;21637;53.352;-6.356;2022-07-23T05:58:44;17.40;99.90
35531;DHT22;21637;53.352;-6.356;2022-07-23T06:01:10;17.40;99.90
35531;DHT22;21637;53.352;-6.356;2022-07-23T06:03:37;17.30;99.90
35531;DHT22;21637;53.352;-6.356;2022-07-23T06:06:03;17.30;99.90
35531;DHT22;21637;53.352;-6.356;2022-07-23T06:08:29;17.30;99.90
35531;DHT22;21637;53.352;-6.356;2022-07-23T06:10:55;17.30;99.90
35531;DHT22;21637;53.352;-6.356;2022-07-23T06:13:20;17.30;99.90
35531;DHT22;21637;53.352;-6.356;2022-07-23T06:15:46;17.30;99.90
35531;DHT22;21637;53.352;-6.356;2022-07-23T06:18:12;17.30;99.90
35531;DHT22;21637;53.352;-6.356;2022-07-23T06:20:37;17.30;99.90
35531;DHT22;21637;53.352;-6.356;2022-07-23T06:23:03;17.30;99.90
35531;DHT22;21637;53.352;-6.356;2022-07-23T06:25:29;17.30;99.90
35531;DHT22;21637;53.352;-6.356;2022-07-23T06:27:54;17.20;99.90
35531;DHT22;21637;53.352;-6.356;2022-07-23T06:30:20;17.20;99.90
35531;DHT22;21637;53.352;-6.356;2022-07-23T06:32:46;17.20;99.90
35531;DHT22;21637;53.352;-6.356;2022-07-23T06:35:12;17.20;99.90
35531;DHT22;21637;53.352;-6.356;2022-07-23T06:37:38;17.20;99.90
35531;DHT22;21637;53.352;-6.356;2022-07-23T06:40:03;17.20;99.90
35531;DHT22;21637;53.352;-6.356;2022-07-23T06:42:29;17.20;99.90
35531;DHT22;21637;53.352;-6.356;2022-07-23T06:44:55;17.20;99.90
35531;DHT22;21637;53.352;-6.356;2022-07-23T06:47:20;17.20;99.90
35531;DHT22;21637;53.352;-6.356;2022-07-23T06:49:46;17.20;99.90
35531;DHT22;21637;53.352;-6.356;2022-07-23T06:52:12;17.30;99.90
35531;DHT22;21637;53.352;-6.356;2022-07-23T06:54:37;17.30;99.90
35531;DHT22;21637;53.352;-6.356;2022-07-23T06:57:03;17.40;99.90
35531;DHT22;21637;53.352;-6.356;2022-07-23T06:59:28;17.30;99.90
35531;DHT22;21637;53.352;-6.356;2022-07-23T07:01:54;17.30;99.90
35531;DHT22;21637;53.352;-6.356;2022-07-23T07:04:20;17.40;99.90
35531;DHT22;21637;53.352;-6.356;2022-07-23T07:06:45;17.30;99.90
35531;DHT22;21637;53.352;-6.356;2022-07-23T07:09:11;17.30;99.90
35531;DHT22;21637;53.352;-6.356;2022-07-23T07:11:36;17.40;99.90
35531;DHT22;21637;53.352;-6.356;2022-07-23T07:14:02;17.40;99.90
35531;DHT22;21637;53.352;-6.356;2022-07-23T07:16:29;17.40;99.90
35531;DHT22;21637;53.352;-6.356;2022-07-23T07:18:55;17.40;99.90
35531;DHT22;21637;53.352;-6.356;2022-07-23T07:21:20;17.40;99.90
35531;DHT22;21637;53.352;-6.356;2022-07-23T07:23:46;17.40;99.90
35531;DHT22;21637;53.352;-6.356;2022-07-23T07:26:11;17.40;99.90
35531;DHT22;21637;53.352;-6.356;2022-07-23T07:28:37;17.40;99.90
35531;DHT22;21637;53.352;-6.356;2022-07-23T07:31:03;17.50;99.90
35531;DHT22;21637;53.352;-6.356;2022-07-23T07:33:28;17.50;99.90
35531;DHT22;21637;53.352;-6.356;2022-07-23T07:35:54;17.60;99.90
35531;DHT22;21637;53.352;-6.356;2022-07-23T07:38:19;17.60;99.90
35531;DHT22;21637;53.352;-6.356;2022-07-23T07:40:45;17.60;99.90
35531;DHT22;21637;53.352;-6.356;2022-07-23T07:43:11;17.60;99.90
35531;DHT22;21637;53.352;-6.356;2022-07-23T07:45:36;17.60;99.90
35531;DHT22;21637;53.352;-6.356;2022-07-23T07:48:02;17.60;99.90
35531;DHT22;21637;53.352;-6.356;2022-07-23T07:50:28;17.60;99.90
35531;DHT22;21637;53.352;-6.356;2022-07-23T07:52:53;17.60;99.90
35531;DHT22;21637;53.352;-6.356;2022-07-23T07:55:19;17.70;99.90
35531;DHT22;21637;53.352;-6.356;2022-07-23T07:57:44;17.70;99.90
35531;DHT22;21637;53.352;-6.356;2022-07-23T08:00:10;17.80;99.90
35531;DHT22;21637;53.352;-6.356;2022-07-23T08:02:55;17.80;99.90
35531;DHT22;21637;53.352;-6.356;2022-07-23T08:05:24;17.80;99.90
35531;DHT22;21637;53.352;-6.356;2022-07-23T08:07:50;17.90;99.90
35531;DHT22;21637;53.352;-6.356;2022-07-23T08:10:16;17.90;99.90
35531;DHT22;21637;53.352;-6.356;2022-07-23T08:12:44;17.90;99.90
35531;DHT22;21637;53.352;-6.356;2022-07-23T08:15:11;17.90;99.90
35531;DHT22;21637;53.352;-6.356;2022-07-23T08:17:37;17.90;99.90
35531;DHT22;21637;53.352;-6.356;2022-07-23T08:20:03;18.00;99.90
35531;DHT22;21637;53.352;-6.356;2022-07-23T08:25:31;18.00;99.90
35531;DHT22;21637;53.352;-6.356;2022-07-23T08:27:57;18.00;99.90
35531;DHT22;21637;53.352;-6.356;2022-07-23T08:30:23;18.10;99.90
35531;DHT22;21637;53.352;-6.356;2022-07-23T08:33:05;18.10;99.90
35531;DHT22;21637;53.352;-6.356;2022-07-23T08:35:33;18.20;99.90
35531;DHT22;21637;53.352;-6.356;2022-07-23T08:38:00;18.40;99.90
35531;DHT22;21637;53.352;-6.356;2022-07-23T08:40:27;18.40;99.90
35531;DHT22;21637;53.352;-6.356;2022-07-23T08:42:53;18.40;99.90
35531;DHT22;21637;53.352;-6.356;2022-07-23T08:45:19;18.50;99.90
35531;DHT22;21637;53.352;-6.356;2022-07-23T08:47:49;18.60;99.90
35531;DHT22;21637;53.352;-6.356;2022-07-23T08:50:15;18.70;99.90
35531;DHT22;21637;53.352;-6.356;2022-07-23T08:52:40;18.80;99.90
35531;DHT22;21637;53.352;-6.356;2022-07-23T08:55:07;18.80;99.90
35531;DHT22;21637;53.352;-6.356;2022-07-23T08:57:33;18.90;99.90
35531;DHT22;21637;53.352;-6.356;2022-07-23T08:59:58;18.90;99.90
35531;DHT22;21637;53.352;-6.356;2022-07-23T09:02:24;18.90;99.90
35531;DHT22;21637;53.352;-6.356;2022-07-23T09:04:49;19.00;99.90
35531;DHT22;21637;53.352;-6.356;2022-07-23T09:07:15;19.00;99.90
35531;DHT22;21637;53.352;-6.356;2022-07-23T09:09:41;19.10;99.90
35531;DHT22;21637;53.352;-6.356;2022-07-23T09:12:07;19.10;99.90
35531;DHT22;21637;53.352;-6.356;2022-07-23T09:14:37;19.10;99.90
35531;DHT22;21637;53.352;-6.356;2022-07-23T09:17:13;19.10;99.90
35531;DHT22;21637;53.352;-6.356;2022-07-23T09:19:40;19.10;99.90
35531;DHT22;21637;53.352;-6.356;2022-07-23T09:25:02;19.10;99.90
35531;DHT22;21637;53.352;-6.356;2022-07-23T09:30:12;19.00;99.90
35531;DHT22;21637;53.352;-6.356;2022-07-23T09:32:41;19.10;99.90
35531;DHT22;21637;53.352;-6.356;2022-07-23T09:35:07;19.10;99.90
35531;DHT22;21637;53.352;-6.356;2022-07-23T09:37:33;19.10;99.90
35531;DHT22;21637;53.352;-6.356;2022-07-23T09:40:08;19.10;99.90
35531;DHT22;21637;53.352;-6.356;2022-07-23T09:42:34;19.10;99.90
35531;DHT22;21637;53.352;-6.356;2022-07-23T09:45:00;19.10;99.90
35531;DHT22;21637;53.352;-6.356;2022-07-23T09:47:27;19.20;99.90
35531;DHT22;21637;53.352;-6.356;2022-07-23T09:49:59;19.20;99.90
35531;DHT22;21637;53.352;-6.356;2022-07-23T09:52:33;19.30;99.90
35531;DHT22;21637;53.352;-6.356;2022-07-23T09:54:59;19.40;99.90
35531;DHT22;21637;53.352;-6.356;2022-07-23T09:57:26;19.50;99.90
35531;DHT22;21637;53.352;-6.356;2022-07-23T09:59:52;19.60;99.90
35531;DHT22;21637;53.352;-6.356;2022-07-23T10:02:18;19.60;99.90
35531;DHT22;21637;53.352;-6.356;2022-07-23T10:04:44;19.80;99.90
35531;DHT22;21637;53.352;-6.356;2022-07-23T10:07:10;19.90;99.90
35531;DHT22;21637;53.352;-6.356;2022-07-23T10:09:37;19.90;99.90
35531;DHT22;21637;53.352;-6.356;2022-07-23T10:12:04;20.00;99.90
35531;DHT22;21637;53.352;-6.356;2022-07-23T10:14:30;20.00;99.90
35531;DHT22;21637;53.352;-6.356;2022-07-23T10:16:57;20.00;99.90
35531;DHT22;21637;53.352;-6.356;2022-07-23T10:19:23;20.10;99.90
35531;DHT22;21637;53.352;-6.356;2022-07-23T10:21:50;20.10;99.90
35531;DHT22;21637;53.352;-6.356;2022-07-23T10:29:36;20.20;99.90
35531;DHT22;21637;53.352;-6.356;2022-07-23T10:32:08;20.20;99.90
35531;DHT22;21637;53.352;-6.356;2022-07-23T10:37:15;20.30;99.90
35531;DHT22;21637;53.352;-6.356;2022-07-23T10:42:36;20.20;99.90
35531;DHT22;21637;53.352;-6.356;2022-07-23T10:45:02;20.20;99.90
35531;DHT22;21637;53.352;-6.356;2022-07-23T10:47:46;20.20;99.90
35531;DHT22;21637;53.352;-6.356;2022-07-23T10:50:19;20.20;99.90
35531;DHT22;21637;53.352;-6.356;2022-07-23T10:57:55;20.40;99.90
35531;DHT22;21637;53.352;-6.356;2022-07-23T11:00:28;20.40;99.90
35531;DHT22;21637;53.352;-6.356;2022-07-23T11:02:55;20.50;99.90
35531;DHT22;21637;53.352;-6.356;2022-07-23T11:05:22;20.50;99.90
35531;DHT22;21637;53.352;-6.356;2022-07-23T11:10:45;20.80;99.90
35531;DHT22;21637;53.352;-6.356;2022-07-23T11:23:57;21.70;99.90
35531;DHT22;21637;53.352;-6.356;2022-07-23T11:34:30;21.90;99.90
35531;DHT22;21637;53.352;-6.356;2022-07-23T11:36:56;22.00;99.90
35531;DHT22;21637;53.352;-6.356;2022-07-23T11:39:21;22.00;99.90
35531;DHT22;21637;53.352;-6.356;2022-07-23T11:41:50;22.20;99.90
35531;DHT22;21637;53.352;-6.356;2022-07-23T11:44:29;22.50;99.90
35531;DHT22;21637;53.352;-6.356;2022-07-23T11:46:59;22.60;99.90
35531;DHT22;21637;53.352;-6.356;2022-07-23T11:49:25;22.80;99.90
35531;DHT22;21637;53.352;-6.356;2022-07-23T11:52:09;23.00;99.90
35531;DHT22;21637;53.352;-6.356;2022-07-23T11:54:36;23.20;99.90
35531;DHT22;21637;53.352;-6.356;2022-07-23T11:57:02;23.30;99.90
35531;DHT22;21637;53.352;-6.356;2022-07-23T11:59:32;23.40;99.90
35531;DHT22;21637;53.352;-6.356;2022-07-23T12:01:58;23.40;99.90
35531;DHT22;21637;53.352;-6.356;2022-07-23T12:04:46;23.40;99.90
35531;DHT22;21637;53.352;-6.356;2022-07-23T12:09:48;23.30;99.90
35531;DHT22;21637;53.352;-6.356;2022-07-23T12:12:14;23.40;99.90
35531;DHT22;21637;53.352;-6.356;2022-07-23T12:14:53;23.50;99.90
35531;DHT22;21637;53.352;-6.356;2022-07-23T12:17:19;23.50;99.90
35531;DHT22;21637;53.352;-6.356;2022-07-23T12:19:45;23.60;99.90
35531;DHT22;21637;53.352;-6.356;2022-07-23T12:22:11;23.60;99.90
35531;DHT22;21637;53.352;-6.356;2022-07-23T12:27:21;23.60;99.90
35531;DHT22;21637;53.352;-6.356;2022-07-23T12:29:47;23.60;99.90
35531;DHT22;21637;53.352;-6.356;2022-07-23T12:32:23;23.70;99.90
35531;DHT22;21637;53.352;-6.356;2022-07-23T12:34:49;23.80;99.90
35531;DHT22;21637;53.352;-6.356;2022-07-23T12:37:29;24.00;99.90
35531;DHT22;21637;53.352;-6.356;2022-07-23T12:39:55;24.10;99.90
35531;DHT22;21637;53.352;-6.356;2022-07-23T12:42:20;24.20;99.90
35531;DHT22;21637;53.352;-6.356;2022-07-23T12:47:30;24.00;99.90
35531;DHT22;21637;53.352;-6.356;2022-07-23T12:49:56;23.90;99.90
35531;DHT22;21637;53.352;-6.356;2022-07-23T12:52:21;23.80;99.90
35531;DHT22;21637;53.352;-6.356;2022-07-23T12:54:47;23.80;99.90
35531;DHT22;21637;53.352;-6.356;2022-07-23T12:57:13;23.80;99.90
35531;DHT22;21637;53.352;-6.356;2022-07-23T12:59:39;23.80;99.90
35531;DHT22;21637;53.352;-6.356;2022-07-23T13:02:04;23.90;99.90
35531;DHT22;21637;53.352;-6.356;2022-07-23T13:04:33;23.90;99.90
35531;DHT22;21637;53.352;-6.356;2022-07-23T13:06:59;24.00;99.90
35531;DHT22;21637;53.352;-6.356;2022-07-23T13:09:28;24.20;99.90
35531;DHT22;21637;53.352;-6.356;2022-07-23T13:11:54;24.30;99.90
35531;DHT22;21637;53.352;-6.356;2022-07-23T13:14:21;24.40;99.90
35531;DHT22;21637;53.352;-6.356;2022-07-23T13:16:47;24.40;99.90
35531;DHT22;21637;53.352;-6.356;2022-07-23T13:19:13;24.50;99.90
35531;DHT22;21637;53.352;-6.356;2022-07-23T13:21:39;24.40;99.90
35531;DHT22;21637;53.352;-6.356;2022-07-23T13:24:05;24.50;99.90
35531;DHT22;21637;53.352;-6.356;2022-07-23T13:26:30;24.60;99.90
35531;DHT22;21637;53.352;-6.356;2022-07-23T13:28:56;24.70;99.90
35531;DHT22;21637;53.352;-6.356;2022-07-23T13:31:21;24.80;99.90
35531;DHT22;21637;53.352;-6.356;2022-07-23T13:33:47;24.90;99.90
35531;DHT22;21637;53.352;-6.356;2022-07-23T13:36:13;24.80;99.90
35531;DHT22;21637;53.352;-6.356;2022-07-23T13:38:39;24.70;99.90
35531;DHT22;21637;53.352;-6.356;2022-07-23T13:41:04;24.70;99.90
35531;DHT22;21637;53.352;-6.356;2022-07-23T13:43:30;24.70;99.90
35531;DHT22;21637;53.352;-6.356;2022-07-23T13:45:56;24.60;99.90
35531;DHT22;21637;53.352;-6.356;2022-07-23T13:48:22;24.50;99.90
35531;DHT22;21637;53.352;-6.356;2022-07-23T13:50:48;24.50;99.90
35531;DHT22;21637;53.352;-6.356;2022-07-23T13:53:15;24.50;99.90
35531;DHT22;21637;53.352;-6.356;2022-07-23T13:55:41;24.40;99.90
35531;DHT22;21637;53.352;-6.356;2022-07-23T13:58:08;24.30;99.90
35531;DHT22;21637;53.352;-6.356;2022-07-23T14:00:34;24.20;99.90
35531;DHT22;21637;53.352;-6.356;2022-07-23T14:03:00;24.10;99.90
35531;DHT22;21637;53.352;-6.356;2022-07-23T14:05:26;24.10;99.90
35531;DHT22;21637;53.352;-6.356;2022-07-23T14:07:52;24.10;99.90
35531;DHT22;21637;53.352;-6.356;2022-07-23T14:10:18;24.20;99.90
35531;DHT22;21637;53.352;-6.356;2022-07-23T14:12:45;24.30;99.90
35531;DHT22;21637;53.352;-6.356;2022-07-23T14:15:11;24.30;99.90
35531;DHT22;21637;53.352;-6.356;2022-07-23T14:17:37;24.30;99.90
35531;DHT22;21637;53.352;-6.356;2022-07-23T14:20:04;24.30;99.90
35531;DHT22;21637;53.352;-6.356;2022-07-23T14:22:29;24.20;99.90
35531;DHT22;21637;53.352;-6.356;2022-07-23T14:24:55;24.10;99.90
35531;DHT22;21637;53.352;-6.356;2022-07-23T14:27:23;24.20;99.90
35531;DHT22;21637;53.352;-6.356;2022-07-23T14:29:48;24.30;99.90
35531;DHT22;21637;53.352;-6.356;2022-07-23T14:32:14;24.30;99.90
35531;DHT22;21637;53.352;-6.356;2022-07-23T14:34:39;24.40;99.90
35531;DHT22;21637;53.352;-6.356;2022-07-23T14:37:05;24.30;99.90
35531;DHT22;21637;53.352;-6.356;2022-07-23T14:39:31;24.30;99.90
35531;DHT22;21637;53.352;-6.356;2022-07-23T14:41:56;24.20;99.90
35531;DHT22;21637;53.352;-6.356;2022-07-23T14:44:22;24.20;99.90
35531;DHT22;21637;53.352;-6.356;2022-07-23T14:46:48;24.30;99.90
35531;DHT22;21637;53.352;-6.356;2022-07-23T14:49:13;24.40;99.90
35531;DHT22;21637;53.352;-6.356;2022-07-23T14:51:39;24.50;99.90
35531;DHT22;21637;53.352;-6.356;2022-07-23T14:54:07;24.50;99.90
35531;DHT22;21637;53.352;-6.356;2022-07-23T14:56:33;24.50;99.90
35531;DHT22;21637;53.352;-6.356;2022-07-23T14:58:59;24.40;99.90
35531;DHT22;21637;53.352;-6.356;2022-07-23T15:01:24;24.30;99.90
35531;DHT22;21637;53.352;-6.356;2022-07-23T15:03:50;24.30;99.90
35531;DHT22;21637;53.352;-6.356;2022-07-23T15:06:16;24.40;99.90
35531;DHT22;21637;53.352;-6.356;2022-07-23T15:08:43;24.40;99.90
35531;DHT22;21637;53.352;-6.356;2022-07-23T15:11:08;24.40;99.90
35531;DHT22;21637;53.352;-6.356;2022-07-23T15:13:35;24.50;99.90
35531;DHT22;21637;53.352;-6.356;2022-07-23T15:16:00;24.70;99.90
35531;DHT22;21637;53.352;-6.356;2022-07-23T15:18:26;24.90;99.90
35531;DHT22;21637;53.352;-6.356;2022-07-23T15:20:52;25.10;99.90
35531;DHT22;21637;53.352;-6.356;2022-07-23T15:23:17;25.10;99.90
35531;DHT22;21637;53.352;-6.356;2022-07-23T15:25:43;25.10;99.90
35531;DHT22;21637;53.352;-6.356;2022-07-23T15:28:09;25.40;99.90
35531;DHT22;21637;53.352;-6.356;2022-07-23T15:30:34;25.50;99.90
35531;DHT22;21637;53.352;-6.356;2022-07-23T15:33:00;25.40;99.90
35531;DHT22;21637;53.352;-6.356;2022-07-23T15:35:26;25.30;99.90
35531;DHT22;21637;53.352;-6.356;2022-07-23T15:37:52;25.20;99.90
35531;DHT22;21637;53.352;-6.356;2022-07-23T15:40:17;25.20;99.90
35531;DHT22;21637;53.352;-6.356;2022-07-23T15:42:43;25.20;99.90
35531;DHT22;21637;53.352;-6.356;2022-07-23T15:45:08;25.30;99.90
35531;DHT22;21637;53.352;-6.356;2022-07-23T15:47:34;25.20;99.90
35531;DHT22;21637;53.352;-6.356;2022-07-23T15:50:00;25.00;99.90
35531;DHT22;21637;53.352;-6.356;2022-07-23T15:52:25;24.80;99.90
35531;DHT22;21637;53.352;-6.356;2022-07-23T15:54:51;24.60;99.90
35531;DHT22;21637;53.352;-6.356;2022-07-23T15:57:16;24.50;99.90
35531;DHT22;21637;53.352;-6.356;2022-07-23T15:59:42;24.50;99.90
35531;DHT22;21637;53.352;-6.356;2022-07-23T16:02:08;24.50;99.90
35531;DHT22;21637;53.352;-6.356;2022-07-23T16:04:33;24.60;99.90